• Join FlightAware (Why Join?)
  • Login
  • US Flag 
08:07AM EDT


 

Airport Tracker/Info


-or-


 

Live Flight TrackerFlight Track Log ✈ N373LD ✈ 06-Apr-2014 ✈ KMLS - KBGD

Flight Track Log - Related Links

Times and Time Zones

All times are in EDT time to prevent confusion due to time zone crossing. See the N373LD flight status page for this flight to view local times or setup timezone preferences in your user account.

Time Position Orientation Groundspeed Altitude Reporting Facility
EDT Latitude Longitude Course Direction KTS MPH feet Rate Location/Type
04:26PM 46.2069 -105.8103 159° South 184 212 11,200  Level Salt Lake Center
04:27PM 46.1594 -105.7858 160° South 181 208 12,500 1,200 Climbing Salt Lake Center
04:28PM 46.1078 -105.7600 161° South 185 213 13,800 1,200 Climbing Salt Lake Center
04:29PM 46.0556 -105.7344 161° South 190 219 15,000 1,140 Climbing Salt Lake Center
04:30PM 46.0414 -105.6941 161° South  Level Estimated
04:30PM 46.0025 -105.7067 160° South 195 224 16,200  Level Salt Lake Center
04:31PM 45.9780 -105.6584 159° South  Level FlightAware Approximate
04:31PM 45.9489 -105.6806 161° South 196 226 17,400  Level Salt Lake Center
04:32PM 45.8931 -105.6547 162° South 202 232 18,700 1,260 Climbing Salt Lake Center
04:33PM 45.8264 -105.6208 160° South 205 236 20,000 1,140 Climbing Salt Lake Center
04:34PM 45.7692 -105.5931 161° South 208 239 21,100 1,020 Climbing Salt Lake Center
04:35PM 45.7111 -105.5644 161° South 213 245 22,200 1,080 Climbing Salt Lake Center
04:36PM 45.6528 -105.5361 161° South 215 247 23,400 1,080 Climbing Salt Lake Center
04:37PM 45.5958 -105.5086 161° South 215 247 24,500 900 Climbing Salt Lake Center
04:38PM 45.5408 -105.4817 161° South 215 247 25,300 840 Climbing Salt Lake Center
04:39PM 45.4819 -105.4536 162° South 217 250 26,300 780 Climbing Salt Lake Center
04:40PM 45.4086 -105.4178 161° South 230 265 27,000 300 Climbing Salt Lake Center
04:41PM 45.3422 -105.3864 162° South 246 283 27,000  Level Salt Lake Center
04:42PM 45.2703 -105.3508 161° South 266 306 27,000  Level Salt Lake Center
04:43PM 45.1989 -105.3150 161° South 269 310 27,000  Level Salt Lake Center
04:44PM 45.1269 -105.2806 161° South 269 310 27,000  Level Salt Lake Center
04:45PM 45.0550 -105.2464 161° South 271 312 27,000  Level Salt Lake Center
04:46PM 44.9814 -105.2136 163° South 272 313 27,000  Level Salt Lake Center
04:47PM 44.8956 -105.1722 161° South 273 314 27,000  Level Salt Lake Center
04:48PM 44.8397 -105.1439 160° South 272 313 27,000  Level Denver Center
04:50PM 44.7531 -105.1028 161° South 271 312 27,000  Level Salt Lake Center
04:51PM 44.6792 -105.0692 162° South 271 312 27,000  Level Salt Lake Center
04:51PM 44.6103 -105.0378 162° South 272 313 27,000  Level Denver Center
04:53PM 44.5414 -105.0047 161° South 272 313 27,000  Level Denver Center
04:54PM 44.4614 -104.9664 161° South 272 313 27,000  Level Denver Center
04:55PM 44.3922 -104.9342 162° South 272 313 27,000  Level Denver Center
04:56PM 44.3356 -104.9081 162° South 272 313 27,000  Level Denver Center
04:57PM 44.2433 -104.8647 161° South 272 313 27,000  Level Denver Center
04:58PM 44.1639 -104.8269 161° South 272 313 27,000  Level Denver Center
04:59PM 44.0950 -104.7961 162° South 272 313 27,000  Level Denver Center
05:00PM 44.0144 -104.7586 161° South 272 313 27,000  Level Denver Center
05:01PM 43.9453 -104.7253 161° South 272 313 27,000  Level Denver Center
05:02PM 43.8764 -104.6956 163° South 272 313 27,000  Level Denver Center
05:03PM 43.7972 -104.6572 161° South 272 313 27,000  Level Denver Center
05:04PM 43.7053 -104.6156 162° South 272 313 27,000  Level Denver Center
05:05PM 43.6367 -104.5839 162° South 272 313 27,000  Level Denver Center
05:06PM 43.5550 -104.5478 162° South 273 314 27,000  Level Denver Center
05:07PM 43.4864 -104.5158 161° South 273 314 27,000  Level Denver Center
05:08PM 43.4197 -104.4856 162° South 271 312 27,000  Level Denver Center
05:09PM 43.3303 -104.4456 162° South 268 308 27,000  Level Denver Center
05:10PM 43.2531 -104.4111 162° South 265 305 27,000  Level Denver Center
05:12PM 43.1878 -104.3817 162° South 263 303 27,000  Level Denver Center
05:13PM 43.1119 -104.3481 162° South 261 300 27,000  Level Denver Center
05:14PM 43.0464 -104.3189 162° South 260 299 27,000  Level Denver Center
05:15PM 42.9808 -104.2897 162° South 260 299 27,000  Level Denver Center
05:16PM 42.9033 -104.2553 162° South 260 299 27,000  Level Denver Center
05:17PM 42.8361 -104.2264 163° South 260 299 27,000  Level Denver Center
05:18PM 42.7583 -104.1914 162° South 261 300 27,000  Level Denver Center
05:19PM 42.6922 -104.1625 162° South 261 300 27,000  Level Denver Center
05:20PM 42.6144 -104.1275 162° South 261 300 27,000  Level Denver Center
05:21PM 42.5467 -104.0983 162° South 261 300 27,000  Level Denver Center
05:22PM 42.4681 -104.0642 162° South 262 302 27,000  Level Denver Center
05:23PM 42.4006 -104.0342 162° South 263 303 27,000  Level Denver Center
05:24PM 42.3336 -104.0056 162° South 263 303 27,000  Level Denver Center
05:25PM 42.2539 -103.9703 162° South 264 304 27,000  Level Denver Center
05:26PM 42.1875 -103.9414 162° South 265 305 27,000  Level Denver Center
05:27PM 42.1081 -103.9075 162° South 269 310 27,000  Level Denver Center
05:28PM 42.0408 -103.8800 163° South 267 307 27,000  Level Denver Center
05:29PM 41.9633 -103.8444 161° South 265 305 27,000  Level Denver Center
05:30PM 41.8956 -103.8169 163° South 265 305 27,000  Level Denver Center
05:31PM 41.8161 -103.7831 162° South 266 306 27,000  Level Denver Center
05:32PM 41.7486 -103.7536 162° South 266 306 27,000  Level Denver Center
05:33PM 41.6583 -103.7150 162° South 266 306 27,000  Level Denver Center
05:34PM 41.5922 -103.6864 162° South 266 306 27,000  Level Denver Center
05:36PM 41.5122 -103.6519 162° South 267 307 27,000  Level Denver Center
05:37PM 41.4442 -103.6250 163° South 267 307 27,000  Level Denver Center
05:38PM 41.3644 -103.5911 162° South 268 308 27,000  Level Denver Center
05:39PM 41.2964 -103.5600 161° South 268 308 27,000  Level Denver Center
05:40PM 41.2164 -103.5269 163° South 269 310 27,000  Level Denver Center
05:41PM 41.1478 -103.4992 163° South 269 310 27,000  Level Denver Center
05:42PM 41.0678 -103.4664 163° South 270 311 27,000  Level Denver Center
05:43PM 40.9989 -103.4369 162° South 270 311 27,000  Level Denver Center
05:44PM 40.9286 -103.4069 162° South 270 311 27,000  Level Denver Center
05:45PM 40.8703 -103.3839 163° South 272 313 27,000  Level Denver Center
05:46PM 40.7839 -103.3481 163° South 272 313 27,000  Level Denver Center
05:47PM 40.6972 -103.3117 162° South 272 313 27,000  Level Denver Center
05:48PM 40.6250 -103.2806 162° South 274 315 27,000  Level Denver Center
05:49PM 40.5522 -103.2517 163° South 274 315 27,000  Level Denver Center
05:50PM 40.4806 -103.2225 163° South 271 312 27,000  Level Denver Center
05:51PM 40.4083 -103.1931 163° South 271 312 27,000  Level Denver Center
05:52PM 40.3350 -103.1633 163° South 273 314 27,000  Level Denver Center
05:53PM 40.2622 -103.1339 163° South 273 314 27,000  Level Denver Center
05:54PM 40.1469 -103.0867 163° South 270 311 27,000  Level Denver Center
05:56PM 40.0753 -103.0578 163° South 269 310 27,000  Level Denver Center
05:57PM 40.0058 -103.0289 162° South 266 306 27,000  Level Denver Center
05:58PM 39.9361 -103.0014 163° South 265 305 27,000  Level Denver Center
05:59PM 39.8658 -102.9731 163° South 265 305 27,000  Level Denver Center
06:00PM 39.8106 -102.9506 163° South 262 302 27,000  Level Denver Center
06:01PM 39.7275 -102.9178 163° South 262 302 27,000  Level Denver Center
06:02PM 39.6431 -102.8828 162° South 262 302 27,000  Level Denver Center
06:03PM 39.5742 -102.8561 163° South 260 299 27,000  Level Denver Center
06:04PM 39.5203 -102.8350 163° South 257 296 27,000  Level Denver Center
06:05PM 39.4378 -102.8014 163° South 257 296 27,000  Level Denver Center
06:06PM 39.3831 -102.7803 163° South 258 297 27,000  Level Denver Center
06:07PM 39.3000 -102.7475 163° South 258 297 27,000  Level Denver Center
06:08PM 39.2183 -102.7147 163° South 258 297 27,000  Level Denver Center
06:09PM 39.1533 -102.6897 163° South 258 297 27,000  Level Denver Center
06:10PM 39.0872 -102.6642 163° South 258 297 27,000  Level Denver Center
06:11PM 39.0106 -102.6342 163° South 258 297 27,000  Level Denver Center
06:12PM 38.9453 -102.6086 163° South 257 296 27,000  Level Denver Center
06:13PM 38.8578 -102.5733 163° South 258 297 27,000  Level Denver Center
06:14PM 38.7914 -102.5478 163° South 260 299 27,000  Level Denver Center
06:15PM 38.7133 -102.5181 163° South 261 300 27,000  Level Denver Center
06:16PM 38.6469 -102.4925 163° South 261 300 27,000  Level Denver Center
06:17PM 38.5697 -102.4617 163° South 260 299 27,000  Level Denver Center
06:18PM 38.5033 -102.4367 164° South 260 299 27,000  Level Denver Center
06:19PM 38.4264 -102.4069 163° South 259 298 27,000  Level Denver Center
06:20PM 38.3614 -102.3811 163° South 259 298 27,000  Level Denver Center
06:22PM 38.2411 -102.3358 164° South 258 297 27,000  Level Kansas City Center
06:23PM 38.1750 -102.3097 163° South 258 297 27,000  Level Kansas City Center
06:24PM 38.0972 -102.2800 163° South 258 297 27,000  Level Kansas City Center
06:25PM 38.0319 -102.2550 163° South 258 297 27,000  Level Kansas City Center
06:26PM 37.9508 -102.2250 164° South 267 307 27,000  Level Kansas City Center
06:27PM 37.8814 -102.1967 162° South 269 310 27,000  Level Kansas City Center
06:28PM 37.8000 -102.1669 164° South 271 312 27,000  Level Kansas City Center
06:29PM 37.7303 -102.1414 164° South 271 312 27,000  Level Kansas City Center
06:30PM 37.6486 -102.1092 163° South 272 313 27,000 -300 Level Kansas City Center
06:31PM 37.5789 -102.0831 163° South 272 313 26,500 -540 Descending Kansas City Center
06:32PM 37.4947 -102.0514 163° South 278 320 26,000 -300 Descending Kansas City Center
06:34PM 37.4244 -102.0250 163° South 278 320 26,000  Level Kansas City Center
06:35PM 37.3456 -101.9958 164° South 270 311 26,000  Level Kansas City Center
06:36PM 37.2781 -101.9700 163° South 269 310 26,000  Level Kansas City Center
06:37PM 37.1986 -101.9414 164° South 269 310 26,000  Level Kansas City Center
06:38PM 37.1308 -101.9150 163° South 268 308 26,000  Level Kansas City Center
06:39PM 37.0531 -101.8875 164° South 266 306 26,000  Level Albuquerque Center
06:40PM 36.9844 -101.8614 163° South 266 306 26,000  Level Albuquerque Center
06:41PM 36.9017 -101.8300 163° South 274 315 26,000  Level Albuquerque Center
06:42PM 36.8314 -101.8039 163° South 272 313 26,000  Level Kansas City Center
06:43PM 36.7614 -101.7800 165° South 272 313 26,000  Level Kansas City Center
06:44PM 36.6786 -101.7472 162° South 274 315 26,000  Level Kansas City Center
06:45PM 36.6094 -101.7225 164° South 275 316 26,000 -540 Level Kansas City Center
06:46PM 36.5208 -101.6928 165° South 276 318 24,900 -1,380 Descending Albuquerque Center
06:47PM 36.4481 -101.6656 163° South 276 318 23,200 -1,740 Descending Albuquerque Center
06:48PM 36.3736 -101.6378 163° South 276 318 21,400 -1,800 Descending Albuquerque Center
06:49PM 36.3025 -101.6119 164° South 270 311 19,600 -1,860 Descending Albuquerque Center
06:50PM 36.2361 -101.5878 164° South 256 295 17,700 -1,860 Descending Albuquerque Center
06:51PM 36.1706 -101.5642 164° South 249 287 15,900 -1,980 Descending Albuquerque Center
06:52PM 36.0953 -101.5375 164° South 241 277 13,700 -1,980 Descending Albuquerque Center
06:53PM 36.0322 -101.5142 163° South 240 276 11,900 -1,740 Descending Albuquerque Center
06:54PM 35.9742 -101.4917 163° South 226 260 10,200 -1,740 Descending Albuquerque Center
06:55PM 35.9219 -101.4742 165° South 210 242 8,400 -1,680 Descending Albuquerque Center
06:56PM 35.8731 -101.4572 164° South 196 226 6,800 -1,080 Descending Albuquerque Center
06:57PM 35.8269 -101.4406 164° South 184 212 6,200 -600 Descending Albuquerque Center
06:59PM 35.7388 -101.4081 163° South  Level FlightAware Approximate
07:06PM 35.7000 -101.3833 141° Southeast  Level FlightAware Approximate
07:07PM 35.7009 -101.3937 141° Southeast  Level Estimated